createdAt,value
2022-11-24T00:03:32.627Z,7.45
2022-11-24T00:06:04.441Z,8.20
2022-11-24T00:08:30.976Z,8.77
2022-11-24T00:11:09.176Z,11.48
2022-11-24T00:13:36.001Z,9.75
2022-11-24T00:16:14.378Z,9.95
2022-11-24T00:18:42.967Z,6.93
2022-11-24T00:21:10.310Z,7.35
2022-11-24T00:23:37.741Z,10.23
2022-11-24T00:26:08.760Z,11.95
2022-11-24T00:28:36.779Z,10.13
2022-11-24T00:31:04.818Z,8.18
2022-11-24T00:33:31.897Z,5.88
2022-11-24T00:36:00.042Z,8.77
2022-11-24T00:38:27.190Z,12.27
2022-11-24T00:40:53.672Z,10.05
2022-11-24T00:43:22.872Z,10.30
2022-11-24T00:45:49.299Z,11.98
2022-11-24T00:48:16.040Z,7.13
2022-11-24T00:53:09.860Z,10.93
2022-11-24T00:55:36.286Z,8.98
2022-11-24T00:58:02.718Z,8.77
2022-11-24T01:00:29.392Z,8.65
2022-11-24T01:02:55.860Z,4.97
2022-11-24T01:05:22.275Z,7.95
2022-11-24T01:07:48.734Z,4.65
2022-11-24T01:10:15.175Z,9.40
2022-11-24T01:12:41.667Z,6.05
2022-11-24T01:15:09.035Z,12.75
2022-11-24T01:17:35.459Z,16.58
2022-11-24T01:20:01.902Z,14.38
2022-11-24T01:22:28.417Z,10.70
2022-11-24T01:24:54.808Z,9.80
2022-11-24T01:27:21.284Z,13.05
2022-11-24T01:29:47.743Z,9.02
2022-11-24T01:32:14.253Z,15.25
2022-11-24T01:34:40.643Z,7.53
2022-11-24T01:37:07.032Z,12.02
2022-11-24T01:39:33.414Z,12.25
2022-11-24T01:42:02.687Z,10.77
2022-11-24T01:44:30.582Z,7.75
2022-11-24T01:47:06.591Z,9.23
2022-11-24T01:49:39.111Z,8.52
2022-11-24T01:52:15.900Z,9.88
2022-11-24T01:54:48.126Z,10.18
2022-11-24T01:57:24.518Z,11.98
2022-11-24T01:59:55.874Z,12.48
2022-11-24T02:02:28.368Z,11.63
2022-11-24T02:04:58.219Z,11.30
2022-11-24T02:07:25.275Z,12.80
2022-11-24T02:09:59.342Z,10.15
2022-11-24T02:12:29.844Z,11.82
2022-11-24T02:14:56.644Z,15.98
2022-11-24T02:17:23.067Z,14.23
2022-11-24T02:20:04.268Z,12.63
2022-11-24T02:22:57.035Z,10.38
2022-11-24T02:25:52.058Z,9.82
2022-11-24T02:28:21.662Z,12.90
2022-11-24T02:30:49.246Z,15.00
2022-11-24T02:33:15.936Z,17.42
2022-11-24T02:38:16.193Z,10.18
2022-11-24T02:40:47.841Z,13.48
2022-11-24T02:43:19.810Z,18.17
2022-11-24T02:45:48.011Z,9.77
2022-11-24T02:48:15.864Z,14.40
2022-11-24T02:50:42.567Z,11.38
2022-11-24T02:55:36.594Z,17.20
2022-11-24T02:58:03.064Z,14.32
2022-11-24T03:00:29.471Z,10.00
2022-11-24T03:02:55.898Z,19.38
2022-11-24T03:05:22.480Z,13.60
2022-11-24T03:10:16.699Z,13.20
2022-11-24T03:12:43.223Z,13.93
2022-11-24T03:15:10.157Z,13.80
2022-11-24T03:17:36.809Z,18.13
2022-11-24T03:22:31.965Z,14.15
2022-11-24T03:24:58.498Z,12.45
2022-11-24T03:29:51.428Z,12.77
2022-11-24T03:34:44.166Z,15.07
2022-11-24T03:37:10.555Z,11.50
2022-11-24T03:39:36.940Z,18.65
2022-11-24T03:42:03.385Z,20.60
2022-11-24T03:44:29.807Z,12.35
2022-11-24T03:46:56.197Z,14.55
2022-11-24T03:49:22.635Z,17.17
2022-11-24T03:51:49.720Z,13.90
2022-11-24T03:54:16.158Z,17.30
2022-11-24T03:56:42.742Z,11.90
2022-11-24T04:01:35.649Z,14.05
2022-11-24T04:06:28.588Z,18.52
2022-11-24T04:08:55.203Z,23.50
2022-11-24T04:14:13.197Z,13.90
2022-11-24T04:16:39.851Z,18.77
2022-11-24T04:19:06.507Z,25.70
2022-11-24T04:21:33.004Z,16.92
2022-11-24T04:23:59.385Z,14.18
2022-11-24T04:26:25.813Z,14.23
2022-11-24T04:28:52.274Z,15.93
2022-11-24T04:33:45.279Z,17.65
2022-11-24T04:36:11.664Z,13.93
2022-11-24T04:39:23.025Z,21.20
2022-11-24T04:41:24.511Z,20.45
2022-11-24T04:43:51.223Z,25.45
2022-11-24T04:46:17.830Z,19.73
2022-11-24T04:51:13.346Z,19.70
2022-11-24T04:53:39.767Z,19.65
2022-11-24T04:56:06.688Z,21.13
2022-11-24T04:58:33.266Z,23.08
2022-11-24T05:03:26.340Z,20.88
2022-11-24T05:05:52.778Z,17.38
2022-11-24T05:08:19.230Z,18.50
2022-11-24T05:10:46.804Z,16.95
2022-11-24T05:13:13.767Z,25.33
2022-11-24T05:15:41.745Z,22.38
2022-11-24T05:18:12.123Z,26.90
2022-11-24T05:20:38.990Z,19.33
2022-11-24T05:23:07.467Z,25.23
2022-11-24T05:25:35.068Z,27.83
2022-11-24T05:28:03.979Z,16.08
2022-11-24T05:30:30.977Z,14.85
2022-11-24T05:32:58.212Z,22.58
2022-11-24T05:35:24.948Z,22.67
2022-11-24T05:37:51.328Z,25.85
2022-11-24T05:40:17.868Z,22.10
2022-11-24T05:42:47.586Z,21.60
2022-11-24T05:45:17.687Z,16.02
2022-11-24T05:47:44.636Z,18.77
2022-11-24T05:50:13.679Z,16.95
2022-11-24T05:52:40.625Z,17.67
2022-11-24T05:55:08.755Z,19.77
2022-11-24T05:57:35.453Z,25.50
2022-11-24T06:00:03.872Z,19.95
2022-11-24T06:02:54.454Z,14.45
2022-11-24T06:05:24.595Z,18.67
2022-11-24T06:07:52.217Z,27.35
2022-11-24T06:10:21.002Z,25.13
2022-11-24T06:12:48.034Z,23.45
2022-11-24T06:15:14.514Z,21.70
2022-11-24T06:17:41.063Z,18.05
2022-11-24T06:22:34.432Z,24.30
2022-11-24T06:25:00.865Z,16.48
2022-11-24T06:27:27.802Z,19.45
2022-11-24T06:29:54.357Z,25.92
2022-11-24T06:32:20.785Z,27.45
2022-11-24T06:34:47.245Z,20.20
2022-11-24T06:37:13.662Z,21.40
2022-11-24T06:39:40.208Z,26.27
2022-11-24T06:44:33.785Z,17.67
2022-11-24T06:47:00.456Z,20.75
2022-11-24T06:49:27.152Z,23.95
2022-11-24T06:54:23.368Z,24.40
2022-11-24T06:56:49.967Z,24.73
2022-11-24T07:01:47.105Z,25.02
2022-11-24T07:04:13.984Z,18.90
2022-11-24T07:06:41.373Z,23.98
2022-11-24T07:09:09.547Z,16.75
2022-11-24T07:11:36.317Z,20.88
2022-11-24T07:14:03.179Z,21.40
2022-11-24T07:16:30.059Z,17.42
2022-11-24T07:18:57.739Z,18.73
2022-11-24T07:21:25.714Z,21.52
2022-11-24T07:23:54.148Z,16.13
2022-11-24T07:26:21.511Z,24.42
2022-11-24T07:28:47.972Z,23.88
2022-11-24T07:31:18.755Z,22.95
2022-11-24T07:33:49.848Z,15.30
2022-11-24T07:36:16.527Z,29.00
2022-11-24T07:41:11.363Z,22.35
2022-11-24T07:43:38.664Z,18.50
2022-11-24T07:46:06.963Z,18.58
2022-11-24T07:48:34.373Z,13.82
2022-11-24T07:51:02.400Z,14.18
2022-11-24T07:53:29.116Z,11.23
2022-11-24T07:55:57.026Z,12.60
2022-11-24T07:58:27.619Z,10.82
2022-11-24T08:00:56.865Z,12.57
2022-11-24T08:03:23.922Z,11.55
2022-11-24T08:06:23.205Z,13.60
2022-11-24T08:08:45.210Z,13.23
2022-11-24T08:11:17.266Z,14.25
2022-11-24T08:13:43.992Z,13.40
2022-11-24T08:16:12.788Z,11.48
2022-11-24T08:18:39.552Z,14.18
2022-11-24T08:23:33.143Z,13.00
2022-11-24T08:28:32.483Z,9.10
2022-11-24T08:31:06.881Z,11.25
2022-11-24T08:33:33.593Z,12.82
2022-11-24T08:38:30.746Z,11.15
2022-11-24T08:41:01.813Z,12.02
2022-11-24T08:43:28.311Z,11.98
2022-11-24T08:45:54.750Z,17.63
2022-11-24T08:48:21.261Z,15.20
2022-11-24T08:50:47.644Z,17.75
2022-11-24T08:53:16.121Z,11.65
2022-11-24T08:55:42.588Z,15.70
2022-11-24T08:58:08.987Z,10.75
2022-11-24T09:00:35.522Z,15.65
2022-11-24T09:05:51.310Z,10.15
2022-11-24T09:08:14.664Z,9.32
2022-11-24T09:10:41.036Z,14.18
2022-11-24T09:13:08.506Z,10.10
2022-11-24T09:15:35.344Z,12.40
2022-11-24T09:18:01.743Z,8.55
2022-11-24T09:20:28.320Z,8.55
2022-11-24T09:25:23.610Z,13.88
2022-11-24T09:27:51.001Z,9.70
2022-11-24T09:30:17.791Z,5.10
2022-11-24T09:32:44.402Z,15.57
2022-11-24T09:37:37.190Z,17.23
2022-11-24T09:40:03.939Z,9.05
2022-11-24T09:43:03.551Z,11.32
2022-11-24T09:46:04.615Z,13.10
2022-11-24T09:48:34.670Z,7.53
2022-11-24T09:51:04.277Z,9.80
2022-11-24T09:53:45.915Z,12.55
2022-11-24T09:56:25.884Z,11.35
2022-11-24T09:58:59.248Z,11.45
2022-11-24T10:01:37.462Z,9.68
2022-11-24T10:04:10.707Z,9.27
2022-11-24T10:06:54.063Z,13.05
2022-11-24T10:09:51.976Z,12.18
2022-11-24T10:13:02.124Z,13.18
2022-11-24T10:15:54.112Z,10.60
2022-11-24T10:18:50.133Z,10.07
2022-11-24T10:21:42.123Z,10.30
2022-11-24T10:24:26.570Z,8.63
2022-11-24T10:27:02.168Z,15.43
2022-11-24T10:29:30.713Z,14.80
2022-11-24T10:31:57.804Z,16.13
2022-11-24T10:34:27.091Z,8.75
2022-11-24T10:37:05.854Z,7.22
2022-11-24T10:40:00.064Z,16.33
2022-11-24T10:42:28.625Z,11.30
2022-11-24T10:45:26.525Z,11.13
2022-11-24T10:47:52.944Z,13.02
2022-11-24T10:50:22.457Z,12.63
2022-11-24T10:53:03.440Z,17.63
2022-11-24T10:55:58.661Z,13.13
2022-11-24T10:58:38.273Z,16.58
2022-11-24T11:01:14.247Z,11.65
2022-11-24T11:03:59.600Z,16.88
2022-11-24T11:06:28.994Z,12.80
2022-11-24T11:09:07.952Z,9.25
2022-11-24T11:11:36.299Z,9.73
2022-11-24T11:14:05.102Z,11.52
2022-11-24T11:16:38.124Z,11.73
2022-11-24T11:19:47.873Z,14.38
2022-11-24T11:22:24.547Z,10.07
2022-11-24T11:25:04.521Z,12.10
2022-11-24T11:27:31.173Z,15.02
2022-11-24T11:35:50.215Z,12.68
2022-11-24T11:38:16.759Z,15.48
2022-11-24T11:43:24.736Z,11.50
2022-11-24T11:46:02.122Z,11.30
2022-11-24T11:48:42.716Z,11.07
2022-11-24T11:51:25.842Z,9.40
2022-11-24T11:54:34.813Z,15.18
2022-11-24T11:57:17.674Z,8.43
2022-11-24T12:00:17.591Z,14.70
2022-11-24T12:03:08.366Z,9.10
2022-11-24T12:05:52.880Z,11.20
2022-11-24T12:09:03.299Z,13.73
2022-11-24T12:11:31.852Z,10.98
2022-11-24T12:14:41.994Z,13.88
2022-11-24T12:17:24.618Z,9.00
2022-11-24T12:20:00.540Z,10.95
2022-11-24T12:22:58.035Z,12.23
2022-11-24T12:25:38.116Z,9.57
2022-11-24T12:28:29.409Z,12.27
2022-11-24T12:31:06.825Z,7.95
2022-11-24T12:34:01.179Z,11.13
2022-11-24T12:36:46.673Z,13.88
2022-11-24T12:39:30.767Z,7.30
2022-11-24T12:42:09.049Z,9.35
2022-11-24T12:44:52.208Z,9.57
2022-11-24T12:47:24.365Z,10.35
2022-11-24T12:50:14.593Z,13.63
2022-11-24T12:52:54.138Z,12.68
2022-11-24T12:55:25.400Z,9.35
2022-11-24T12:58:11.402Z,11.23
2022-11-24T13:00:52.790Z,9.55
2022-11-24T13:03:40.851Z,10.30
2022-11-24T13:06:19.644Z,9.23
2022-11-24T13:08:46.541Z,7.60
2022-11-24T13:11:22.071Z,10.63
2022-11-24T13:14:00.601Z,9.35
2022-11-24T13:16:36.213Z,7.78
2022-11-24T13:19:17.200Z,13.40
2022-11-24T13:21:45.374Z,6.75
2022-11-24T13:24:18.560Z,9.38
2022-11-24T13:26:49.043Z,8.43
2022-11-24T13:29:25.538Z,10.38
2022-11-24T13:31:52.245Z,5.70
2022-11-24T13:34:40.239Z,7.90
2022-11-24T13:37:26.489Z,9.90
2022-11-24T13:40:23.172Z,7.97
2022-11-24T13:43:01.318Z,7.03
2022-11-24T13:45:40.544Z,8.57
2022-11-24T13:48:19.134Z,9.23
2022-11-24T13:50:53.001Z,8.77
2022-11-24T13:53:32.116Z,6.30
2022-11-24T13:55:59.679Z,8.85
2022-11-24T13:58:30.539Z,7.40
2022-11-24T14:01:08.891Z,8.38
2022-11-24T14:06:51.518Z,9.30
2022-11-24T14:09:44.599Z,10.23
2022-11-24T14:12:12.711Z,5.93
2022-11-24T14:14:40.344Z,12.02
2022-11-24T14:17:14.031Z,10.20
2022-11-24T14:19:41.617Z,10.90
2022-11-24T14:22:30.946Z,10.65
2022-11-24T14:25:01.419Z,8.35
2022-11-24T14:27:45.950Z,6.88
2022-11-24T14:30:13.502Z,7.53
2022-11-24T14:32:40.613Z,8.13
2022-11-24T14:35:25.445Z,10.45
2022-11-24T14:37:52.209Z,7.78
2022-11-24T14:43:34.586Z,8.45
2022-11-24T14:46:04.577Z,12.63
2022-11-24T14:48:47.860Z,7.50
2022-11-24T14:51:23.036Z,3.85
2022-11-24T14:53:53.816Z,6.00
2022-11-24T14:56:24.965Z,6.18
2022-11-24T14:58:52.049Z,5.60
2022-11-24T15:01:21.211Z,7.93
2022-11-24T15:07:29.468Z,7.55
2022-11-24T15:09:58.515Z,9.70
2022-11-24T15:12:29.319Z,6.30
2022-11-24T15:15:00.955Z,8.20
2022-11-24T15:17:29.035Z,8.55
2022-11-24T15:20:00.007Z,7.35
2022-11-24T15:22:38.417Z,7.38
2022-11-24T15:25:25.883Z,11.98
2022-11-24T15:27:52.769Z,7.55
2022-11-24T15:30:19.956Z,7.03
2022-11-24T15:32:50.736Z,8.38
2022-11-24T15:35:17.270Z,8.93
2022-11-24T15:40:14.036Z,9.10
2022-11-24T15:42:41.052Z,8.88
2022-11-24T15:45:07.996Z,8.55
2022-11-24T15:48:02.351Z,5.40
2022-11-24T15:50:28.819Z,8.20
2022-11-24T15:52:57.130Z,7.57
2022-11-24T15:55:23.600Z,28.27
2022-11-24T15:57:50.111Z,21.48
2022-11-24T16:05:55.711Z,14.05
2022-11-24T16:08:22.251Z,12.85
2022-11-24T16:10:48.856Z,9.00
2022-11-24T16:15:41.798Z,10.45
2022-11-24T16:18:08.447Z,13.57
2022-11-24T16:20:36.007Z,11.30
2022-11-24T16:23:04.352Z,11.15
2022-11-24T16:25:39.628Z,18.52
2022-11-24T16:28:07.692Z,18.80
2022-11-24T16:30:35.220Z,13.48
2022-11-24T16:33:06.643Z,17.42
2022-11-24T16:35:33.731Z,13.13
2022-11-24T16:38:00.140Z,9.77
2022-11-24T16:40:27.070Z,11.25
2022-11-24T16:42:56.144Z,15.65
2022-11-24T16:45:22.916Z,14.15
2022-11-24T16:47:49.757Z,11.63
2022-11-24T16:50:16.922Z,10.68
2022-11-24T16:52:43.776Z,12.10
2022-11-24T16:55:11.582Z,9.55
2022-11-24T16:57:38.280Z,11.55
2022-11-24T17:00:06.116Z,13.50
2022-11-24T17:02:33.443Z,14.35
2022-11-24T17:05:00.135Z,11.40
2022-11-24T17:07:26.777Z,13.50
2022-11-24T17:09:54.344Z,11.07
2022-11-24T17:12:20.818Z,12.40
2022-11-24T17:15:09.367Z,13.38
2022-11-24T17:17:33.731Z,13.88
2022-11-24T17:20:00.890Z,11.20
2022-11-24T17:22:27.992Z,13.00
2022-11-24T17:24:54.715Z,10.98
2022-11-24T17:27:21.280Z,8.60
2022-11-24T17:32:14.240Z,12.85
2022-11-24T17:34:40.689Z,15.95
2022-11-24T17:37:07.461Z,15.43
2022-11-24T17:39:34.248Z,12.27
2022-11-24T17:42:00.705Z,15.45
2022-11-24T17:44:27.533Z,13.73
2022-11-24T17:46:54.223Z,11.50
2022-11-24T17:51:51.521Z,15.93
2022-11-24T17:57:05.910Z,15.40
2022-11-24T17:59:32.606Z,16.23
2022-11-24T18:01:59.287Z,19.15
2022-11-24T18:06:52.107Z,12.93
2022-11-24T18:09:18.510Z,14.07
2022-11-24T18:11:45.021Z,14.65
2022-11-24T18:14:11.641Z,10.43
2022-11-24T18:19:10.457Z,15.52
2022-11-24T18:21:40.160Z,15.77
2022-11-24T18:24:09.651Z,13.68
2022-11-24T18:26:36.961Z,17.88
2022-11-24T18:29:04.327Z,18.38
2022-11-24T18:31:32.329Z,23.67
2022-11-24T18:33:59.425Z,24.17
2022-11-24T18:36:30.376Z,21.08
2022-11-24T18:39:00.899Z,17.92
2022-11-24T18:41:27.499Z,18.80
2022-11-24T18:43:53.948Z,19.92
2022-11-24T18:46:20.587Z,18.17
2022-11-24T18:51:16.729Z,17.67
2022-11-24T18:53:45.110Z,15.50
2022-11-24T18:56:16.715Z,18.83
2022-11-24T18:58:43.910Z,17.70
2022-11-24T19:01:16.733Z,15.32
2022-11-24T19:03:48.776Z,12.60
2022-11-24T19:06:28.793Z,14.15
2022-11-24T19:08:55.996Z,12.80
2022-11-24T19:11:23.817Z,14.32
2022-11-24T19:14:15.269Z,12.68
2022-11-24T19:16:42.738Z,12.52
2022-11-24T19:19:11.576Z,13.10
2022-11-24T19:21:39.748Z,13.85
2022-11-24T19:24:09.868Z,15.93
2022-11-24T19:26:37.708Z,11.90
2022-11-24T19:29:05.947Z,9.07
2022-11-24T19:31:33.957Z,12.13
2022-11-24T19:34:03.335Z,12.20
2022-11-24T19:36:30.119Z,11.48
2022-11-24T19:38:57.552Z,10.18
2022-11-24T19:41:30.371Z,12.70
2022-11-24T19:43:58.628Z,11.95
2022-11-24T19:46:27.965Z,11.30
2022-11-24T19:48:57.022Z,10.50
2022-11-24T19:51:26.860Z,12.93
2022-11-24T19:53:54.160Z,10.90
2022-11-24T19:56:24.049Z,9.20
2022-11-24T19:58:51.611Z,10.20
2022-11-24T20:01:26.093Z,9.73
2022-11-24T20:04:00.988Z,10.82
2022-11-24T20:06:32.621Z,9.15
2022-11-24T20:09:02.873Z,10.50
2022-11-24T20:11:30.087Z,14.38
2022-11-24T20:13:57.773Z,11.93
2022-11-24T20:16:38.054Z,9.52
2022-11-24T20:19:09.727Z,12.32
2022-11-24T20:21:37.547Z,9.65
2022-11-24T20:24:11.374Z,12.40
2022-11-24T20:26:45.074Z,9.50
2022-11-24T20:29:13.317Z,11.27
2022-11-24T20:31:45.563Z,11.65
2022-11-24T20:34:13.276Z,12.68
2022-11-24T20:36:43.219Z,9.65
2022-11-24T20:39:13.938Z,7.47
2022-11-24T20:41:41.293Z,10.88
2022-11-24T20:44:13.011Z,13.73
2022-11-24T20:46:41.963Z,11.52
2022-11-24T20:49:12.086Z,8.00
2022-11-24T20:51:44.027Z,8.02
2022-11-24T20:54:13.007Z,6.85
2022-11-24T20:56:41.649Z,9.95
2022-11-24T20:59:11.838Z,11.60
2022-11-24T21:01:40.812Z,9.18
2022-11-24T21:04:13.338Z,9.55
2022-11-24T21:06:41.306Z,13.18
2022-11-24T21:09:09.069Z,12.00
2022-11-24T21:11:36.618Z,11.63
2022-11-24T21:14:04.248Z,6.95
2022-11-24T21:16:33.905Z,9.18
2022-11-24T21:19:12.576Z,11.32
2022-11-24T21:21:40.955Z,12.95
2022-11-24T21:24:21.442Z,10.15
2022-11-24T21:26:49.103Z,9.15
2022-11-24T21:29:17.759Z,9.43
2022-11-24T21:31:44.342Z,6.85
2022-11-24T21:36:44.548Z,13.77
2022-11-24T21:39:13.500Z,9.88
2022-11-24T21:41:40.601Z,8.68
2022-11-24T21:44:07.220Z,8.70
2022-11-24T21:49:07.639Z,8.07
2022-11-24T21:54:00.845Z,9.70
2022-11-24T21:56:27.520Z,8.52
2022-11-24T21:58:57.149Z,9.98
2022-11-24T22:01:27.844Z,9.50
2022-11-24T22:03:54.979Z,10.52
2022-11-24T22:06:21.423Z,9.35
2022-11-24T22:08:48.902Z,7.40
2022-11-24T22:11:18.305Z,11.85
2022-11-24T22:13:45.544Z,8.20
2022-11-24T22:16:14.788Z,7.82
2022-11-24T22:18:42.519Z,9.45
2022-11-24T22:21:16.116Z,7.13
2022-11-24T22:23:43.401Z,7.07
2022-11-24T22:26:14.262Z,8.48
2022-11-24T22:28:41.082Z,5.00
2022-11-24T22:31:13.149Z,8.18
2022-11-24T22:33:40.147Z,7.63
2022-11-24T22:36:07.079Z,7.57
2022-11-24T22:38:34.243Z,7.03
2022-11-24T22:41:06.360Z,12.40
2022-11-24T22:43:35.202Z,4.70
2022-11-24T22:46:21.769Z,7.22
2022-11-24T22:48:49.991Z,6.80
2022-11-24T22:51:22.114Z,7.30
2022-11-24T22:53:50.499Z,5.63
2022-11-24T22:56:18.006Z,6.72
2022-11-24T22:58:44.481Z,7.20
2022-11-24T23:01:22.191Z,4.45
2022-11-24T23:03:49.598Z,4.68
2022-11-24T23:06:17.958Z,4.65
2022-11-24T23:08:44.693Z,9.38
2022-11-24T23:11:15.232Z,5.15
2022-11-24T23:13:41.981Z,8.02
2022-11-24T23:16:14.644Z,6.25
2022-11-24T23:18:42.121Z,4.13
2022-11-24T23:21:12.341Z,3.03
2022-11-24T23:23:39.319Z,5.70
2022-11-24T23:26:08.593Z,2.90
2022-11-24T23:28:35.351Z,5.55
2022-11-24T23:31:09.591Z,5.70
2022-11-24T23:33:36.690Z,4.43
2022-11-24T23:36:09.230Z,5.32
2022-11-24T23:38:36.198Z,6.13
2022-11-24T23:41:04.595Z,4.93
2022-11-24T23:43:32.525Z,4.68
2022-11-24T23:46:07.712Z,4.55
2022-11-24T23:48:34.375Z,6.55
2022-11-24T23:53:35.474Z,5.07
2022-11-24T23:56:02.428Z,4.70
2022-11-24T23:58:28.874Z,4.47
